NKS202 KMYR-KLGA
Flight info
| Callsign | NKS202 |
|---|---|
| Flight time | 1h 27m |
| Altitude | 39000 |
| Route | CRE CHKLZ ZORDO Q107 HURTS PROUD2 |
| Aircraft | A320/M-SDE3FGHIRWY/LB1 |
Departure
| Time | 2026-05-05 00:51 |
|---|---|
| Airport | Myrtle Beach International Airport (KMYR) |
Arrival
| Time | 2026-05-05 02:19 |
|---|---|
| Airport | LaGuardia Airport (KLGA) |
| Time | Latitude | Longitude | Altitude | Speed | Heading |
|---|---|---|---|---|---|
| 2026-05-05 00:24 | 33.68064 | -78.92461 | 26 ft | 0 kts | 150° |
| 2026-05-05 00:25 | 33.68072 | -78.92420 | 26 ft | 0 kts | 168° |
| 2026-05-05 00:37 | 33.68093 | -78.92426 | 26 ft | 2 kts | 168° |
| 2026-05-05 00:37 | 33.68108 | -78.92429 | 26 ft | 2 kts | 168° |
| 2026-05-05 00:37 | 33.68123 | -78.92432 | 26 ft | 2 kts | 197° |
| 2026-05-05 00:37 | 33.68135 | -78.92422 | 26 ft | 2 kts | 240° |
| 2026-05-05 00:38 | 33.68138 | -78.92413 | 26 ft | 1 kts | 264° |
| 2026-05-05 00:38 | 33.68138 | -78.92407 | 26 ft | 0 kts | 258° |
| 2026-05-05 00:40 | 33.68138 | -78.92413 | 26 ft | 2 kts | 258° |
| 2026-05-05 00:40 | 33.68132 | -78.92445 | 26 ft | 5 kts | 261° |
| 2026-05-05 00:40 | 33.68125 | -78.92492 | 26 ft | 6 kts | 259° |
| 2026-05-05 00:41 | 33.68120 | -78.92522 | 26 ft | 3 kts | 258° |
| 2026-05-05 00:41 | 33.68116 | -78.92550 | 26 ft | 0 kts | 258° |
| 2026-05-05 00:41 | 33.68113 | -78.92563 | 26 ft | 2 kts | 257° |
| 2026-05-05 00:41 | 33.68108 | -78.92592 | 26 ft | 4 kts | 260° |
| 2026-05-05 00:42 | 33.68105 | -78.92635 | 26 ft | 5 kts | 280° |
| 2026-05-05 00:42 | 33.68138 | -78.92666 | 26 ft | 7 kts | 345° |
| 2026-05-05 00:42 | 33.68196 | -78.92683 | 26 ft | 9 kts | 346° |
| 2026-05-05 00:42 | 33.68269 | -78.92703 | 26 ft | 11 kts | 348° |
| 2026-05-05 00:43 | 33.68353 | -78.92725 | 26 ft | 13 kts | 347° |
| 2026-05-05 00:43 | 33.68449 | -78.92748 | 26 ft | 14 kts | 348° |
| 2026-05-05 00:43 | 33.68554 | -78.92776 | 26 ft | 16 kts | 347° |
| 2026-05-05 00:43 | 33.68667 | -78.92806 | 25 ft | 17 kts | 348° |
| 2026-05-05 00:44 | 33.68788 | -78.92835 | 25 ft | 18 kts | 348° |
| 2026-05-05 00:44 | 33.68916 | -78.92865 | 25 ft | 19 kts | 360° |
| 2026-05-05 00:44 | 33.69040 | -78.92856 | 24 ft | 17 kts | 352° |
| 2026-05-05 00:44 | 33.69162 | -78.92886 | 23 ft | 14 kts | 347° |
| 2026-05-05 00:45 | 33.69259 | -78.92913 | 23 ft | 13 kts | 334° |
| 2026-05-05 00:45 | 33.69274 | -78.92986 | 23 ft | 0 kts | 258° |
| 2026-05-05 00:47 | 33.69273 | -78.92987 | 23 ft | 0 kts | 258° |
| 2026-05-05 00:47 | 33.69271 | -78.93002 | 23 ft | 2 kts | 258° |
| 2026-05-05 00:47 | 33.69266 | -78.93029 | 23 ft | 4 kts | 258° |
| 2026-05-05 00:48 | 33.69264 | -78.93040 | 23 ft | 0 kts | 258° |
| 2026-05-05 00:49 | 33.69262 | -78.93056 | 23 ft | 5 kts | 257° |
| 2026-05-05 00:50 | 33.69242 | -78.93131 | 23 ft | 11 kts | 227° |
| 2026-05-05 00:50 | 33.69156 | -78.93126 | 23 ft | 21 kts | 167° |
| 2026-05-05 00:50 | 33.68769 | -78.93031 | 25 ft | 91 kts | 167° |
| 2026-05-05 00:50 | 33.67949 | -78.92824 | 30 ft | 147 kts | 170° |
| 2026-05-05 00:51 | 33.66874 | -78.92544 | 432 ft | 162 kts | 169° |
| 2026-05-05 00:51 | 33.65799 | -78.92259 | 1239 ft | 157 kts | 168° |
| 2026-05-05 00:51 | 33.64776 | -78.91959 | 2012 ft | 155 kts | 168° |
| 2026-05-05 00:51 | 33.63683 | -78.91629 | 2501 ft | 171 kts | 168° |
| 2026-05-05 00:52 | 33.62485 | -78.91266 | 3017 ft | 187 kts | 168° |
| 2026-05-05 00:52 | 33.61142 | -78.90865 | 3507 ft | 208 kts | 168° |
| 2026-05-05 00:52 | 33.59678 | -78.90438 | 4076 ft | 226 kts | 168° |
| 2026-05-05 00:52 | 33.58092 | -78.89989 | 4649 ft | 244 kts | 168° |
| 2026-05-05 00:53 | 33.56376 | -78.89518 | 5222 ft | 263 kts | 168° |
| 2026-05-05 00:53 | 33.54557 | -78.89036 | 5909 ft | 276 kts | 168° |
| 2026-05-05 00:53 | 33.52654 | -78.88548 | 6729 ft | 284 kts | 168° |
| 2026-05-05 00:53 | 33.50717 | -78.88068 | 7600 ft | 289 kts | 168° |
| 2026-05-05 00:54 | 33.48733 | -78.87580 | 8481 ft | 292 kts | 168° |
| 2026-05-05 00:54 | 33.46759 | -78.87091 | 9327 ft | 295 kts | 168° |
| 2026-05-05 00:54 | 33.44820 | -78.86285 | 10089 ft | 300 kts | 146° |
| 2026-05-05 00:54 | 33.43389 | -78.84456 | 10670 ft | 307 kts | 116° |
| 2026-05-05 00:55 | 33.42889 | -78.81952 | 11093 ft | 318 kts | 85° |
| 2026-05-05 00:55 | 33.43506 | -78.79462 | 11717 ft | 320 kts | 56° |
| 2026-05-05 00:55 | 33.45052 | -78.77591 | 12437 ft | 319 kts | 30° |
| 2026-05-05 00:55 | 33.47106 | -78.76704 | 13096 ft | 319 kts | 6° |
| 2026-05-05 00:56 | 33.49320 | -78.76517 | 13790 ft | 321 kts | 2° |
| 2026-05-05 00:56 | 33.51580 | -78.76308 | 14454 ft | 325 kts | 3° |
| 2026-05-05 00:56 | 33.53821 | -78.76060 | 15085 ft | 329 kts | 3° |
| 2026-05-05 00:56 | 33.56128 | -78.75780 | 15727 ft | 332 kts | 3° |
| 2026-05-05 00:57 | 33.58435 | -78.75487 | 16345 ft | 336 kts | 3° |
| 2026-05-05 00:57 | 33.60748 | -78.75188 | 16934 ft | 339 kts | 3° |
| 2026-05-05 00:57 | 33.63106 | -78.74877 | 17518 ft | 343 kts | 2° |
| 2026-05-05 00:57 | 33.65492 | -78.74560 | 18097 ft | 347 kts | 2° |
| 2026-05-05 00:58 | 33.67924 | -78.74239 | 18685 ft | 350 kts | 2° |
| 2026-05-05 00:58 | 33.70368 | -78.73914 | 19256 ft | 353 kts | 2° |
| 2026-05-05 00:58 | 33.72805 | -78.73589 | 19827 ft | 356 kts | 2° |
| 2026-05-05 00:58 | 33.75282 | -78.73257 | 20392 ft | 359 kts | 1° |
| 2026-05-05 00:59 | 33.77763 | -78.72926 | 20932 ft | 362 kts | 2° |
| 2026-05-05 00:59 | 33.80269 | -78.72262 | 21419 ft | 374 kts | 17° |
| 2026-05-05 00:59 | 33.82547 | -78.70613 | 21912 ft | 387 kts | 37° |
| 2026-05-05 00:59 | 33.84381 | -78.68191 | 22428 ft | 395 kts | 47° |
| 2026-05-05 01:00 | 33.86077 | -78.65603 | 22903 ft | 399 kts | 47° |
| 2026-05-05 01:00 | 33.87796 | -78.62948 | 23353 ft | 403 kts | 47° |
| 2026-05-05 01:00 | 33.89525 | -78.60300 | 23829 ft | 406 kts | 47° |
| 2026-05-05 01:00 | 33.91300 | -78.57597 | 24305 ft | 408 kts | 47° |
| 2026-05-05 01:01 | 33.93068 | -78.54918 | 24780 ft | 411 kts | 47° |
| 2026-05-05 01:01 | 33.94840 | -78.52238 | 25222 ft | 413 kts | 47° |
| 2026-05-05 01:01 | 33.96656 | -78.49494 | 25663 ft | 416 kts | 47° |
| 2026-05-05 01:01 | 33.98461 | -78.46764 | 26081 ft | 419 kts | 47° |
| 2026-05-05 01:02 | 34.00265 | -78.44041 | 26495 ft | 422 kts | 47° |
| 2026-05-05 01:02 | 34.02100 | -78.41266 | 26916 ft | 424 kts | 47° |
| 2026-05-05 01:02 | 34.03949 | -78.38467 | 27312 ft | 427 kts | 47° |
| 2026-05-05 01:02 | 34.05824 | -78.35626 | 27705 ft | 430 kts | 47° |
| 2026-05-05 01:03 | 34.07702 | -78.32780 | 28086 ft | 433 kts | 48° |
| 2026-05-05 01:03 | 34.09568 | -78.29950 | 28437 ft | 436 kts | 48° |
| 2026-05-05 01:03 | 34.11498 | -78.27021 | 28811 ft | 438 kts | 48° |
| 2026-05-05 01:03 | 34.13417 | -78.24102 | 29184 ft | 440 kts | 48° |
| 2026-05-05 01:04 | 34.15326 | -78.21199 | 29564 ft | 442 kts | 48° |
| 2026-05-05 01:04 | 34.19168 | -78.15347 | 30271 ft | 446 kts | 48° |
| 2026-05-05 01:04 | 34.21085 | -78.12425 | 30597 ft | 448 kts | 48° |
| 2026-05-05 01:05 | 34.23044 | -78.09436 | 30891 ft | 452 kts | 48° |
| 2026-05-05 01:05 | 34.24981 | -78.06477 | 31154 ft | 455 kts | 48° |
| 2026-05-05 01:05 | 34.26962 | -78.03449 | 31425 ft | 458 kts | 48° |
| 2026-05-05 01:05 | 34.28948 | -78.00411 | 31705 ft | 461 kts | 47° |
| 2026-05-05 01:06 | 34.31087 | -77.97561 | 31973 ft | 460 kts | 40° |
| 2026-05-05 01:06 | 34.33528 | -77.95071 | 32255 ft | 457 kts | 31° |
| 2026-05-05 01:06 | 34.36225 | -77.93012 | 32532 ft | 454 kts | 23° |
| 2026-05-05 01:06 | 34.39109 | -77.91420 | 32795 ft | 451 kts | 15° |
| 2026-05-05 01:07 | 34.42081 | -77.90331 | 33057 ft | 447 kts | 7° |
| 2026-05-05 01:07 | 34.45133 | -77.89673 | 33421 ft | 443 kts | 2° |
| 2026-05-05 01:07 | 34.48183 | -77.89155 | 33849 ft | 440 kts | 1° |
| 2026-05-05 01:07 | 34.51223 | -77.88658 | 34231 ft | 439 kts | 1° |
| 2026-05-05 01:08 | 34.54257 | -77.88156 | 34563 ft | 439 kts | 1° |
| 2026-05-05 01:08 | 34.57307 | -77.87642 | 34843 ft | 439 kts | 1° |
| 2026-05-05 01:08 | 34.60342 | -77.87121 | 35126 ft | 438 kts | 1° |
| 2026-05-05 01:08 | 34.63351 | -77.86599 | 35377 ft | 438 kts | 2° |
| 2026-05-05 01:09 | 34.66379 | -77.86072 | 35624 ft | 438 kts | 1° |
| 2026-05-05 01:09 | 34.69456 | -77.85533 | 35856 ft | 439 kts | 1° |
| 2026-05-05 01:09 | 34.72493 | -77.85002 | 36088 ft | 439 kts | 1° |
| 2026-05-05 01:09 | 34.75523 | -77.84470 | 36338 ft | 438 kts | 2° |
| 2026-05-05 01:10 | 34.78532 | -77.83942 | 36640 ft | 438 kts | 2° |
| 2026-05-05 01:10 | 34.81548 | -77.83412 | 36968 ft | 437 kts | 2° |
| 2026-05-05 01:10 | 34.84556 | -77.82869 | 37276 ft | 437 kts | 3° |
| 2026-05-05 01:10 | 34.87600 | -77.82147 | 37489 ft | 441 kts | 6° |
| 2026-05-05 01:11 | 34.90608 | -77.81222 | 37657 ft | 444 kts | 8° |
| 2026-05-05 01:11 | 34.93567 | -77.80231 | 37844 ft | 446 kts | 9° |
| 2026-05-05 01:11 | 34.96583 | -77.79204 | 37999 ft | 447 kts | 9° |
| 2026-05-05 01:11 | 34.99608 | -77.78172 | 38182 ft | 448 kts | 9° |
| 2026-05-05 01:12 | 35.02601 | -77.77151 | 38358 ft | 448 kts | 9° |
| 2026-05-05 01:12 | 35.05640 | -77.76118 | 38534 ft | 449 kts | 9° |
| 2026-05-05 01:12 | 35.08676 | -77.75088 | 38686 ft | 450 kts | 9° |
| 2026-05-05 01:12 | 35.11724 | -77.74054 | 38846 ft | 450 kts | 9° |
| 2026-05-05 01:13 | 35.14765 | -77.73021 | 38990 ft | 451 kts | 9° |
| 2026-05-05 01:13 | 35.17819 | -77.71983 | 39053 ft | 452 kts | 9° |
| 2026-05-05 01:13 | 35.23882 | -77.69923 | 39061 ft | 452 kts | 9° |
| 2026-05-05 01:14 | 35.30008 | -77.67835 | 39060 ft | 453 kts | 9° |
| 2026-05-05 01:14 | 35.36114 | -77.65752 | 39059 ft | 453 kts | 9° |
| 2026-05-05 01:15 | 35.42255 | -77.63654 | 39070 ft | 453 kts | 9° |
| 2026-05-05 01:15 | 35.48333 | -77.61572 | 39058 ft | 452 kts | 9° |
| 2026-05-05 01:16 | 35.54436 | -77.59481 | 39063 ft | 451 kts | 9° |
| 2026-05-05 01:16 | 35.60486 | -77.57404 | 39047 ft | 451 kts | 9° |
| 2026-05-05 01:17 | 35.66592 | -77.55306 | 39049 ft | 451 kts | 9° |
| 2026-05-05 01:17 | 35.72663 | -77.53215 | 39046 ft | 451 kts | 9° |
| 2026-05-05 01:18 | 35.78733 | -77.51193 | 39040 ft | 450 kts | 9° |
| 2026-05-05 01:18 | 35.84793 | -77.49233 | 39043 ft | 450 kts | 9° |
| 2026-05-05 01:19 | 35.90909 | -77.47244 | 39041 ft | 450 kts | 9° |
| 2026-05-05 01:19 | 35.96948 | -77.45274 | 39032 ft | 449 kts | 9° |
| 2026-05-05 01:20 | 36.03051 | -77.43276 | 39034 ft | 449 kts | 9° |
| 2026-05-05 01:20 | 36.09087 | -77.41296 | 39027 ft | 449 kts | 9° |
| 2026-05-05 01:21 | 36.15151 | -77.39304 | 39033 ft | 449 kts | 9° |
| 2026-05-05 01:21 | 36.21240 | -77.37299 | 39032 ft | 449 kts | 9° |
| 2026-05-05 01:22 | 36.27273 | -77.35310 | 39025 ft | 449 kts | 9° |
| 2026-05-05 01:22 | 36.33364 | -77.33302 | 39020 ft | 449 kts | 10° |
| 2026-05-05 01:23 | 36.39382 | -77.31310 | 39018 ft | 449 kts | 9° |
| 2026-05-05 01:23 | 36.45441 | -77.29302 | 39019 ft | 448 kts | 9° |
| 2026-05-05 01:24 | 36.51515 | -77.27291 | 39012 ft | 449 kts | 10° |
| 2026-05-05 01:24 | 36.57549 | -77.25287 | 39017 ft | 449 kts | 10° |
| 2026-05-05 01:25 | 36.63595 | -77.23277 | 39009 ft | 449 kts | 10° |
| 2026-05-05 01:25 | 36.69637 | -77.21263 | 39012 ft | 449 kts | 10° |
| 2026-05-05 01:26 | 36.75691 | -77.19244 | 39009 ft | 449 kts | 10° |
| 2026-05-05 01:26 | 36.81728 | -77.17225 | 39002 ft | 448 kts | 10° |
| 2026-05-05 01:27 | 36.87770 | -77.15202 | 38999 ft | 449 kts | 10° |
| 2026-05-05 01:27 | 36.93786 | -77.13184 | 39000 ft | 448 kts | 10° |
| 2026-05-05 01:28 | 36.99846 | -77.11147 | 38992 ft | 447 kts | 10° |
| 2026-05-05 01:28 | 37.05880 | -77.09118 | 39001 ft | 447 kts | 10° |
| 2026-05-05 01:29 | 37.11869 | -77.07101 | 38996 ft | 448 kts | 10° |
| 2026-05-05 01:29 | 37.17937 | -77.05051 | 38989 ft | 447 kts | 10° |
| 2026-05-05 01:30 | 37.23756 | -77.03085 | 38984 ft | 447 kts | 11° |
| 2026-05-05 01:30 | 37.29736 | -77.01060 | 38984 ft | 447 kts | 11° |
| 2026-05-05 01:31 | 37.35741 | -76.99022 | 38978 ft | 445 kts | 11° |
| 2026-05-05 01:31 | 37.41715 | -76.96970 | 38980 ft | 447 kts | 12° |
| 2026-05-05 01:32 | 37.47619 | -76.94295 | 38981 ft | 450 kts | 19° |
| 2026-05-05 01:32 | 37.53245 | -76.90826 | 38976 ft | 452 kts | 24° |
| 2026-05-05 01:33 | 37.58816 | -76.87102 | 38972 ft | 452 kts | 24° |
| 2026-05-05 01:33 | 37.64372 | -76.83383 | 38974 ft | 452 kts | 24° |
| 2026-05-05 01:34 | 37.69931 | -76.79672 | 38967 ft | 452 kts | 24° |
| 2026-05-05 01:34 | 37.75504 | -76.75946 | 38975 ft | 452 kts | 24° |
| 2026-05-05 01:35 | 37.81062 | -76.72226 | 38966 ft | 452 kts | 24° |
| 2026-05-05 01:35 | 37.86620 | -76.68498 | 38965 ft | 451 kts | 24° |
| 2026-05-05 01:36 | 37.92186 | -76.64909 | 38961 ft | 450 kts | 22° |
| 2026-05-05 01:36 | 37.97807 | -76.61375 | 38959 ft | 450 kts | 23° |
| 2026-05-05 01:37 | 38.03405 | -76.57834 | 38966 ft | 450 kts | 23° |
| 2026-05-05 01:37 | 38.09069 | -76.54235 | 38970 ft | 451 kts | 23° |
| 2026-05-05 01:38 | 38.14647 | -76.50682 | 38959 ft | 450 kts | 23° |
| 2026-05-05 01:38 | 38.20218 | -76.47127 | 38972 ft | 450 kts | 23° |
| 2026-05-05 01:39 | 38.25816 | -76.43529 | 38973 ft | 451 kts | 25° |
| 2026-05-05 01:39 | 38.31258 | -76.39323 | 38970 ft | 454 kts | 31° |
| 2026-05-05 01:40 | 38.33816 | -76.36939 | 38858 ft | 455 kts | 34° |
| 2026-05-05 01:40 | 38.36304 | -76.34517 | 38546 ft | 453 kts | 35° |
| 2026-05-05 01:40 | 38.38814 | -76.32045 | 38226 ft | 450 kts | 35° |
| 2026-05-05 01:40 | 38.41259 | -76.29638 | 37916 ft | 447 kts | 34° |
| 2026-05-05 01:41 | 38.43729 | -76.27211 | 37600 ft | 445 kts | 34° |
| 2026-05-05 01:41 | 38.46201 | -76.24786 | 37276 ft | 444 kts | 34° |
| 2026-05-05 01:41 | 38.48651 | -76.22384 | 36887 ft | 444 kts | 34° |
| 2026-05-05 01:41 | 38.51106 | -76.19977 | 36406 ft | 443 kts | 34° |
| 2026-05-05 01:42 | 38.53583 | -76.17545 | 35892 ft | 444 kts | 34° |
| 2026-05-05 01:42 | 38.56088 | -76.15083 | 35264 ft | 446 kts | 34° |
| 2026-05-05 01:42 | 38.58559 | -76.12653 | 34601 ft | 448 kts | 34° |
| 2026-05-05 01:42 | 38.61058 | -76.10195 | 33896 ft | 450 kts | 34° |
| 2026-05-05 01:43 | 38.63589 | -76.07716 | 33170 ft | 452 kts | 34° |
| 2026-05-05 01:43 | 38.66125 | -76.05333 | 32495 ft | 451 kts | 33° |
| 2026-05-05 01:43 | 38.68683 | -76.02962 | 32006 ft | 447 kts | 33° |
| 2026-05-05 01:43 | 38.71214 | -76.00613 | 31520 ft | 442 kts | 33° |
| 2026-05-05 01:44 | 38.73709 | -75.98292 | 31030 ft | 438 kts | 33° |
| 2026-05-05 01:44 | 38.76200 | -75.95966 | 30533 ft | 434 kts | 33° |
| 2026-05-05 01:44 | 38.78718 | -75.93612 | 29988 ft | 430 kts | 34° |
| 2026-05-05 01:44 | 38.81157 | -75.91325 | 29487 ft | 425 kts | 34° |
| 2026-05-05 01:45 | 38.83540 | -75.89089 | 29011 ft | 420 kts | 34° |
| 2026-05-05 01:45 | 38.85961 | -75.86813 | 28526 ft | 415 kts | 34° |
| 2026-05-05 01:45 | 38.88307 | -75.84606 | 28059 ft | 410 kts | 33° |
| 2026-05-05 01:45 | 38.90608 | -75.82443 | 27594 ft | 406 kts | 34° |
| 2026-05-05 01:46 | 38.92914 | -75.80270 | 27129 ft | 402 kts | 34° |
| 2026-05-05 01:46 | 38.95192 | -75.78127 | 26744 ft | 399 kts | 34° |
| 2026-05-05 01:46 | 38.97488 | -75.75961 | 26763 ft | 403 kts | 34° |
| 2026-05-05 01:46 | 38.99776 | -75.73800 | 26795 ft | 404 kts | 34° |
| 2026-05-05 01:47 | 39.02032 | -75.71665 | 26822 ft | 404 kts | 34° |
| 2026-05-05 01:47 | 39.04303 | -75.69517 | 26852 ft | 404 kts | 34° |
| 2026-05-05 01:47 | 39.06573 | -75.67364 | 26881 ft | 404 kts | 34° |
| 2026-05-05 01:47 | 39.08868 | -75.65186 | 26910 ft | 405 kts | 34° |
| 2026-05-05 01:48 | 39.11156 | -75.63013 | 26925 ft | 405 kts | 34° |
| 2026-05-05 01:48 | 39.13400 | -75.60882 | 26935 ft | 405 kts | 34° |
| 2026-05-05 01:48 | 39.15703 | -75.58694 | 26938 ft | 404 kts | 34° |
| 2026-05-05 01:48 | 39.17950 | -75.56554 | 26937 ft | 404 kts | 34° |
| 2026-05-05 01:49 | 39.20236 | -75.54377 | 26936 ft | 404 kts | 34° |
| 2026-05-05 01:49 | 39.22513 | -75.52207 | 26937 ft | 404 kts | 33° |
| 2026-05-05 01:49 | 39.24852 | -75.50075 | 26931 ft | 404 kts | 32° |
| 2026-05-05 01:49 | 39.27206 | -75.47990 | 26859 ft | 404 kts | 31° |
| 2026-05-05 01:50 | 39.29559 | -75.45911 | 26283 ft | 404 kts | 31° |
| 2026-05-05 01:50 | 39.31874 | -75.43863 | 25757 ft | 401 kts | 31° |
| 2026-05-05 01:50 | 39.34190 | -75.41810 | 25274 ft | 397 kts | 32° |
| 2026-05-05 01:50 | 39.36453 | -75.39798 | 24806 ft | 392 kts | 31° |
| 2026-05-05 01:51 | 39.38730 | -75.37773 | 24337 ft | 388 kts | 31° |
| 2026-05-05 01:51 | 39.40950 | -75.35796 | 23879 ft | 385 kts | 31° |
| 2026-05-05 01:51 | 39.43144 | -75.33841 | 23416 ft | 381 kts | 31° |
| 2026-05-05 01:51 | 39.45335 | -75.31889 | 22960 ft | 378 kts | 32° |
| 2026-05-05 01:52 | 39.47522 | -75.29939 | 22507 ft | 375 kts | 31° |
| 2026-05-05 01:52 | 39.49689 | -75.28002 | 22055 ft | 372 kts | 31° |
| 2026-05-05 01:52 | 39.51818 | -75.26077 | 21763 ft | 373 kts | 32° |
| 2026-05-05 01:52 | 39.53994 | -75.24049 | 21781 ft | 378 kts | 33° |
| 2026-05-05 01:53 | 39.56165 | -75.22008 | 21804 ft | 379 kts | 33° |
| 2026-05-05 01:53 | 39.58355 | -75.19945 | 21643 ft | 380 kts | 33° |
| 2026-05-05 01:53 | 39.60530 | -75.17899 | 21143 ft | 379 kts | 33° |
| 2026-05-05 01:53 | 39.62701 | -75.15859 | 20660 ft | 377 kts | 32° |
| 2026-05-05 01:54 | 39.64863 | -75.13827 | 20188 ft | 374 kts | 32° |
| 2026-05-05 01:54 | 39.66956 | -75.11861 | 19736 ft | 372 kts | 32° |
| 2026-05-05 01:54 | 39.69109 | -75.09942 | 19289 ft | 370 kts | 30° |
| 2026-05-05 01:54 | 39.71307 | -75.08049 | 18832 ft | 368 kts | 30° |
| 2026-05-05 01:55 | 39.73433 | -75.06227 | 18371 ft | 366 kts | 30° |
| 2026-05-05 01:55 | 39.75578 | -75.04386 | 17954 ft | 364 kts | 30° |
| 2026-05-05 01:55 | 39.77729 | -75.02537 | 17483 ft | 363 kts | 30° |
| 2026-05-05 01:55 | 39.79832 | -75.00727 | 17076 ft | 361 kts | 30° |
| 2026-05-05 01:56 | 39.81963 | -74.98888 | 16620 ft | 360 kts | 30° |
| 2026-05-05 01:56 | 39.84053 | -74.97082 | 16201 ft | 358 kts | 30° |
| 2026-05-05 01:56 | 39.86160 | -74.95236 | 15756 ft | 357 kts | 31° |
| 2026-05-05 01:56 | 39.88221 | -74.93369 | 15321 ft | 356 kts | 31° |
| 2026-05-05 01:57 | 39.90271 | -74.91499 | 14887 ft | 355 kts | 32° |
| 2026-05-05 01:57 | 39.92200 | -74.89519 | 14458 ft | 355 kts | 38° |
| 2026-05-05 01:57 | 39.93993 | -74.87251 | 14033 ft | 355 kts | 44° |
| 2026-05-05 01:57 | 39.95692 | -74.84841 | 13602 ft | 354 kts | 45° |
| 2026-05-05 01:58 | 39.97344 | -74.82449 | 13175 ft | 353 kts | 45° |
| 2026-05-05 01:58 | 39.99030 | -74.80014 | 12738 ft | 351 kts | 44° |
| 2026-05-05 01:58 | 40.00706 | -74.77601 | 12296 ft | 350 kts | 44° |
| 2026-05-05 01:58 | 40.02356 | -74.75234 | 11857 ft | 348 kts | 44° |
| 2026-05-05 01:59 | 40.04008 | -74.72866 | 11427 ft | 347 kts | 44° |
| 2026-05-05 01:59 | 40.05650 | -74.70508 | 10986 ft | 346 kts | 44° |
| 2026-05-05 01:59 | 40.07274 | -74.68175 | 10593 ft | 343 kts | 44° |
| 2026-05-05 01:59 | 40.08866 | -74.65884 | 10283 ft | 337 kts | 44° |
| 2026-05-05 02:00 | 40.10432 | -74.63632 | 10030 ft | 330 kts | 44° |
| 2026-05-05 02:00 | 40.11946 | -74.61446 | 10013 ft | 315 kts | 44° |
| 2026-05-05 02:00 | 40.13393 | -74.59359 | 10012 ft | 304 kts | 44° |
| 2026-05-05 02:00 | 40.14819 | -74.57307 | 10007 ft | 303 kts | 43° |
| 2026-05-05 02:01 | 40.16267 | -74.55225 | 10016 ft | 303 kts | 44° |
| 2026-05-05 02:01 | 40.17691 | -74.53171 | 10028 ft | 304 kts | 44° |
| 2026-05-05 02:01 | 40.19150 | -74.51066 | 10048 ft | 304 kts | 44° |
| 2026-05-05 02:01 | 40.20611 | -74.49028 | 10041 ft | 304 kts | 40° |
| 2026-05-05 02:02 | 40.22150 | -74.47062 | 10027 ft | 304 kts | 39° |
| 2026-05-05 02:02 | 40.23673 | -74.45146 | 10021 ft | 303 kts | 39° |
| 2026-05-05 02:02 | 40.25234 | -74.43187 | 10016 ft | 303 kts | 39° |
| 2026-05-05 02:02 | 40.26763 | -74.41260 | 10018 ft | 303 kts | 40° |
| 2026-05-05 02:03 | 40.28289 | -74.39333 | 10017 ft | 303 kts | 39° |
| 2026-05-05 02:03 | 40.29839 | -74.37373 | 10016 ft | 303 kts | 39° |
| 2026-05-05 02:03 | 40.31383 | -74.35420 | 10014 ft | 302 kts | 39° |
| 2026-05-05 02:03 | 40.32872 | -74.33535 | 9821 ft | 298 kts | 40° |
| 2026-05-05 02:04 | 40.34363 | -74.31647 | 9429 ft | 299 kts | 40° |
| 2026-05-05 02:04 | 40.35801 | -74.29826 | 9074 ft | 299 kts | 40° |
| 2026-05-05 02:04 | 40.37305 | -74.27917 | 8727 ft | 298 kts | 41° |
| 2026-05-05 02:04 | 40.38827 | -74.25987 | 8384 ft | 297 kts | 41° |
| 2026-05-05 02:05 | 40.40363 | -74.24148 | 8013 ft | 295 kts | 33° |
| 2026-05-05 02:05 | 40.42057 | -74.22619 | 7603 ft | 293 kts | 29° |
| 2026-05-05 02:05 | 40.43773 | -74.21204 | 7269 ft | 292 kts | 28° |
| 2026-05-05 02:05 | 40.45520 | -74.19783 | 7003 ft | 290 kts | 28° |
| 2026-05-05 02:06 | 40.47246 | -74.18383 | 6993 ft | 289 kts | 28° |
| 2026-05-05 02:06 | 40.48949 | -74.17005 | 6695 ft | 288 kts | 28° |
| 2026-05-05 02:06 | 40.50679 | -74.15615 | 6309 ft | 290 kts | 28° |
| 2026-05-05 02:06 | 40.52417 | -74.14232 | 5961 ft | 290 kts | 28° |
| 2026-05-05 02:07 | 40.54164 | -74.12860 | 5605 ft | 289 kts | 28° |
| 2026-05-05 02:07 | 40.55921 | -74.11497 | 5261 ft | 289 kts | 28° |
| 2026-05-05 02:07 | 40.57628 | -74.10177 | 4933 ft | 289 kts | 28° |
| 2026-05-05 02:07 | 40.59396 | -74.08817 | 4608 ft | 287 kts | 27° |
| 2026-05-05 02:08 | 40.61097 | -74.07516 | 4279 ft | 287 kts | 28° |
| 2026-05-05 02:08 | 40.62836 | -74.06197 | 4038 ft | 286 kts | 27° |
| 2026-05-05 02:08 | 40.64609 | -74.04858 | 4018 ft | 287 kts | 27° |
| 2026-05-05 02:08 | 40.66380 | -74.03522 | 4015 ft | 288 kts | 27° |
| 2026-05-05 02:09 | 40.68115 | -74.02209 | 4012 ft | 278 kts | 27° |
| 2026-05-05 02:09 | 40.69530 | -74.01132 | 4003 ft | 258 kts | 27° |
| 2026-05-05 02:09 | 40.71153 | -73.99892 | 4006 ft | 250 kts | 27° |
| 2026-05-05 02:09 | 40.72641 | -73.98748 | 3997 ft | 238 kts | 27° |
| 2026-05-05 02:10 | 40.74059 | -73.97663 | 3998 ft | 234 kts | 25° |
| 2026-05-05 02:10 | 40.75525 | -73.96757 | 4001 ft | 233 kts | 19° |
| 2026-05-05 02:10 | 40.77031 | -73.95966 | 4003 ft | 233 kts | 18° |
| 2026-05-05 02:10 | 40.78571 | -73.95183 | 4006 ft | 232 kts | 18° |
| 2026-05-05 02:11 | 40.80088 | -73.94415 | 4009 ft | 233 kts | 18° |
| 2026-05-05 02:11 | 40.81611 | -73.93648 | 4009 ft | 232 kts | 18° |
| 2026-05-05 02:11 | 40.83112 | -73.92896 | 4008 ft | 232 kts | 17° |
| 2026-05-05 02:11 | 40.84625 | -73.92138 | 4008 ft | 232 kts | 17° |
| 2026-05-05 02:12 | 40.86149 | -73.91368 | 3944 ft | 230 kts | 18° |
| 2026-05-05 02:12 | 40.88749 | -73.89020 | 3628 ft | 225 kts | 43° |
| 2026-05-05 02:12 | 40.89864 | -73.87582 | 3508 ft | 220 kts | 43° |
| 2026-05-05 02:13 | 40.90970 | -73.86203 | 3386 ft | 215 kts | 41° |
| 2026-05-05 02:13 | 40.92066 | -73.84887 | 3207 ft | 213 kts | 45° |
| 2026-05-05 02:13 | 40.92804 | -73.83244 | 3081 ft | 203 kts | 84° |
| 2026-05-05 02:13 | 40.92665 | -73.81474 | 3046 ft | 188 kts | 120° |
| 2026-05-05 02:14 | 40.91925 | -73.80112 | 3032 ft | 178 kts | 141° |
| 2026-05-05 02:14 | 40.91054 | -73.78953 | 3018 ft | 177 kts | 143° |
| 2026-05-05 02:14 | 40.90184 | -73.77803 | 3013 ft | 178 kts | 142° |
| 2026-05-05 02:14 | 40.89318 | -73.76623 | 3010 ft | 178 kts | 141° |
| 2026-05-05 02:15 | 40.88411 | -73.75507 | 2732 ft | 174 kts | 157° |
| 2026-05-05 02:15 | 40.87309 | -73.75419 | 2354 ft | 157 kts | 209° |
| 2026-05-05 02:15 | 40.86530 | -73.76386 | 2201 ft | 154 kts | 227° |
| 2026-05-05 02:15 | 40.85820 | -73.77442 | 2024 ft | 153 kts | 226° |
| 2026-05-05 02:16 | 40.85091 | -73.78450 | 1832 ft | 148 kts | 224° |
| 2026-05-05 02:16 | 40.84384 | -73.79378 | 1625 ft | 139 kts | 223° |
| 2026-05-05 02:16 | 40.83724 | -73.80248 | 1438 ft | 129 kts | 223° |
| 2026-05-05 02:16 | 40.83108 | -73.81077 | 1278 ft | 126 kts | 223° |
| 2026-05-05 02:17 | 40.82477 | -73.81915 | 1124 ft | 127 kts | 223° |
| 2026-05-05 02:17 | 40.81895 | -73.82784 | 983 ft | 123 kts | 231° |
| 2026-05-05 02:17 | 40.81444 | -73.83742 | 796 ft | 123 kts | 237° |
| 2026-05-05 02:17 | 40.81037 | -73.84721 | 582 ft | 121 kts | 234° |
| 2026-05-05 02:18 | 40.80447 | -73.85495 | 389 ft | 120 kts | 208° |
| 2026-05-05 02:18 | 40.79730 | -73.86062 | 256 ft | 120 kts | 211° |
| 2026-05-05 02:18 | 40.79033 | -73.86655 | 114 ft | 119 kts | 211° |
| 2026-05-05 02:18 | 40.78323 | -73.87247 | 14 ft | 117 kts | 211° |
| 2026-05-05 02:19 | 40.77838 | -73.87649 | 15 ft | 39 kts | 212° |
| 2026-05-05 02:19 | 40.77686 | -73.87763 | 16 ft | 10 kts | 180° |
| 2026-05-05 02:19 | 40.77661 | -73.87743 | 16 ft | 3 kts | 122° |
| 2026-05-05 02:19 | 40.77645 | -73.87708 | 16 ft | 2 kts | 123° |
| 2026-05-05 02:20 | 40.77625 | -73.87672 | 16 ft | 6 kts | 123° |
| 2026-05-05 02:20 | 40.77616 | -73.87610 | 15 ft | 7 kts | 66° |
| 2026-05-05 02:20 | 40.77619 | -73.87604 | 15 ft | 1 kts | 57° |
| 2026-05-05 02:20 | 40.77618 | -73.87582 | 15 ft | 3 kts | 103° |
| 2026-05-05 02:21 | 40.77613 | -73.87545 | 15 ft | 4 kts | 89° |
| 2026-05-05 02:21 | 40.77623 | -73.87498 | 15 ft | 6 kts | 60° |
| 2026-05-05 02:21 | 40.77642 | -73.87454 | 15 ft | 2 kts | 106° |
| 2026-05-05 02:21 | 40.77623 | -73.87429 | 15 ft | 4 kts | 136° |
| 2026-05-05 02:22 | 40.77609 | -73.87412 | 15 ft | 0 kts | 133° |
| 2026-05-05 02:22 | 40.77609 | -73.87410 | 15 ft | 0 kts | 133° |